Terminal Aerodrome Forecast
Issued by NWS

Home | Current Version | Previous Version | Text Only | Print | Product List | Glossary On
Versions: 1 2 3 4 5 6 7 8 9 10 11 12 13 14 15 16 17 18
000
FTUS43 KEAX 250100 AAB
TAFSTJ
TAF AMD
KSTJ 250119Z 2501/2524 VRB06KT 6SM BR BKN005
     FM250300 28006KT P6SM BKN015
     FM250600 20008KT P6SM BKN120
     FM252100 01015KT P6SM -RA BKN030=

USA.gov is the U.S. government's official web portal to all federal, state and local government web resources and services.